Jones - western half: Past 24 Hour Conditions

 

Resolute Airport

04:00 AM CDT 20 October 2014
This table is a summary of hourly weather conditions for the past 24 hours.
Date / Time
(CDT)
Wind(knots) Conditions Visibility(km) Pressure(kPa) Air tempC) Relative humidity(%) Dew pointC) Wind Chill
20 October 2014
4:00 NE 14 Partly Cloudy 24 101.7 -16 81 -18 -27
3:00 NE 14 Partly Cloudy 24 101.7 -15 80 -18 -26
2:00 NE 13 Partly Cloudy 24 101.7 -15 95 -16 -26
1:00 E 14 Mainly Clear 24 101.6 -16 80 -19 -27
0:00 ENE 20 Drifting Snow 24 101.6 -18 81 -20 -31
19 October 2014
23:00 ENE 19 Drifting Snow 24 101.6 -18 81 -20 -31
22:00 ENE 18 Drifting Snow 24 101.6 -18 84 -20 -30
21:00 NE 16 Drifting Snow 24 101.6 -17 83 -19 -29
20:00 ENE 15 Clear 24 101.6 -17 81 -19 -28
19:00 ENE 16 Mainly Clear 24 101.6 -17 80 -20 -29
18:00 ENE 13 Mainly Clear 24 N/A -16 78 -19 -26
17:00 S 5 Clear 24 N/A -16 75 -19 -21
16:00 E 7 N/A N/A 101.5 -16 79 -19 -24
15:00 SSE 3 N/A N/A 101.5 -17 73 -21 -22
14:00 NE 20 N/A N/A 101.4 -17 77 -20 -29
13:00 NE 17 N/A N/A 101.5 -16 70 -20 -28
12:00 NE 16 N/A N/A 101.5 -16 71 -20 -27
11:00 ENE 12 N/A N/A 101.4 -16 70 -20 -25
10:00 ENE 10 N/A N/A 101.4 -15 66 -20 -24
9:00 ENE 14 N/A N/A 101.4 -17 74 -20 -28
8:00 ENE 15 N/A N/A 101.4 -18 74 -21 -29
7:00 ENE 21 Clear 24 101.5 -17 71 -21 -30
6:00 ENE 20 Clear 24 101.5 -17 72 -21 -30
5:00 N/A N/A N/A N/A N/A N/A N/A *
4:00 ENE 14 N/A N/A 101.4 -17 78 -20 -29
 
Map of Arctic - Eastern Arctic marine weather areas Baker Lake Airport Chesterfield Inlet Airport Coral Harbour Airport Gjoa Haven Airport Kugaaruk Airport Rankin Inlet Airport Shepherd Bay Airport Whale Cove Airport Arctic Bay Brevoort Island Qikiqtarjuaq Airport Cape Dorset Airport Cape Dyer Cape Hooper Clyde Airport Grise Fiord Airport Hall Beach Airport Igloolik Airport Iqaluit Airport Longstaff Bluff Pangnirtung Airport Pond Inlet Airport Repulse Bay Airport Resolute Airport Resolution Island Rowley Island Airport Taloyoak Airport Wager Bay Akulivik Airport Ivujivik Airport Puvirnituq Airport Kangiqsujuaq Airport Kangirsuk Airport Quaqtaq Airport Tasiujaq Airport Cape Kakkiviak Cape Kiglapait Nain Airport Saglek Cape Mercy Kimmirut Airport Aupaluk Airport Salluit Airport Kangiqsualujjuaq Airport Fort Ross
Legend: buoyBuoy land stationLand Station